createdAt,value
2023-05-14T00:00:05.150Z,14.60
2023-05-14T00:02:31.588Z,14.35
2023-05-14T00:04:58.075Z,13.50
2023-05-14T00:07:30.443Z,13.82
2023-05-14T00:09:57.749Z,14.57
2023-05-14T00:12:24.355Z,13.65
2023-05-14T00:14:50.770Z,16.15
2023-05-14T00:17:17.138Z,14.82
2023-05-14T00:19:43.627Z,15.02
2023-05-14T00:22:10.154Z,14.88
2023-05-14T00:24:37.034Z,16.73
2023-05-14T00:27:04.054Z,15.73
2023-05-14T00:29:30.446Z,15.88
2023-05-14T00:31:56.872Z,14.88
2023-05-14T00:34:23.290Z,15.52
2023-05-14T00:36:51.040Z,16.38
2023-05-14T00:39:17.405Z,16.15
2023-05-14T00:41:43.785Z,16.65
2023-05-14T00:44:11.412Z,14.10
2023-05-14T00:46:37.929Z,13.38
2023-05-14T00:49:04.555Z,15.85
2023-05-14T00:51:31.427Z,16.02
2023-05-14T00:53:57.922Z,16.30
2023-05-14T00:56:24.828Z,17.83
2023-05-14T00:58:51.216Z,18.13
2023-05-14T01:01:18.021Z,18.52
2023-05-14T01:03:44.698Z,18.88
2023-05-14T01:06:14.063Z,18.67
2023-05-14T01:08:49.974Z,19.35
2023-05-14T01:11:23.505Z,19.83
2023-05-14T01:14:02.007Z,21.35
2023-05-14T01:16:29.461Z,19.63
2023-05-14T01:18:57.446Z,16.58
2023-05-14T01:21:36.775Z,15.15
2023-05-14T01:24:03.334Z,16.70
2023-05-14T01:26:31.255Z,16.10
2023-05-14T01:29:02.839Z,16.33
2023-05-14T01:31:32.070Z,16.88
2023-05-14T01:33:59.633Z,15.43
2023-05-14T01:36:27.661Z,16.42
2023-05-14T01:38:55.273Z,17.98
2023-05-14T01:41:22.624Z,20.17
2023-05-14T01:43:49.200Z,19.08
2023-05-14T01:46:19.015Z,21.13
2023-05-14T01:48:45.731Z,18.50
2023-05-14T01:51:14.568Z,20.35
2023-05-14T01:53:41.078Z,17.85
2023-05-14T01:56:07.484Z,18.02
2023-05-14T01:58:33.879Z,18.33
2023-05-14T02:01:00.354Z,17.67
2023-05-14T02:03:26.763Z,18.67
2023-05-14T02:05:53.152Z,18.80
2023-05-14T02:08:19.549Z,18.23
2023-05-14T02:10:45.932Z,19.23
2023-05-14T02:13:12.316Z,19.77
2023-05-14T02:15:38.746Z,21.25
2023-05-14T02:18:05.401Z,20.73
2023-05-14T02:20:31.861Z,20.65
2023-05-14T02:22:58.252Z,19.98
2023-05-14T02:25:24.675Z,19.88
2023-05-14T02:27:51.029Z,18.67
2023-05-14T02:30:17.655Z,18.40
2023-05-14T02:32:44.324Z,17.55
2023-05-14T02:35:10.913Z,18.90
2023-05-14T02:37:37.371Z,18.52
2023-05-14T02:40:04.334Z,19.30
2023-05-14T02:42:31.404Z,18.67
2023-05-14T02:44:57.834Z,17.83
2023-05-14T02:47:24.279Z,17.52
2023-05-14T02:49:50.708Z,17.33
2023-05-14T02:52:17.086Z,19.90
2023-05-14T02:54:43.469Z,22.17
2023-05-14T02:57:09.860Z,19.45
2023-05-14T02:59:36.368Z,19.13
2023-05-14T03:02:03.281Z,21.27
2023-05-14T03:04:30.096Z,21.23
2023-05-14T03:06:56.484Z,20.45
2023-05-14T03:09:22.842Z,20.55
2023-05-14T03:11:50.322Z,19.13
2023-05-14T03:14:16.681Z,17.70
2023-05-14T03:16:43.121Z,17.42
2023-05-14T03:19:09.986Z,16.85
2023-05-14T03:21:36.538Z,18.10
2023-05-14T03:24:02.975Z,18.33
2023-05-14T03:26:29.379Z,18.13
2023-05-14T03:28:55.904Z,17.85
2023-05-14T03:31:22.498Z,17.60
2023-05-14T03:33:48.949Z,19.13
2023-05-14T03:36:15.397Z,18.98
2023-05-14T03:38:41.826Z,19.20
2023-05-14T03:41:08.638Z,19.52
2023-05-14T03:43:35.104Z,20.20
2023-05-14T03:46:01.489Z,19.15
2023-05-14T03:48:28.107Z,18.85
2023-05-14T03:50:54.578Z,18.50
2023-05-14T03:53:20.987Z,19.95
2023-05-14T03:55:47.379Z,18.83
2023-05-14T03:58:14.448Z,18.80
2023-05-14T04:00:44.051Z,20.55
2023-05-14T04:03:11.006Z,19.67
2023-05-14T04:05:37.630Z,22.02
2023-05-14T04:08:04.009Z,21.08
2023-05-14T04:10:31.996Z,21.88
2023-05-14T04:12:58.371Z,21.05
2023-05-14T04:15:24.816Z,20.25
2023-05-14T04:17:51.306Z,20.45
2023-05-14T04:20:17.678Z,20.90
2023-05-14T04:22:44.052Z,21.15
2023-05-14T04:25:10.475Z,22.48
2023-05-14T04:27:36.847Z,23.45
2023-05-14T04:30:03.396Z,21.63
2023-05-14T04:32:30.235Z,21.17
2023-05-14T04:34:56.686Z,21.75
2023-05-14T04:37:23.548Z,20.88
2023-05-14T04:39:49.971Z,21.10
2023-05-14T04:42:16.354Z,21.08
2023-05-14T04:44:42.750Z,21.33
2023-05-14T04:47:09.109Z,22.45
2023-05-14T04:49:35.508Z,21.60
2023-05-14T04:52:02.540Z,22.30
2023-05-14T04:54:29.049Z,20.88
2023-05-14T04:56:55.903Z,21.20
2023-05-14T04:59:22.450Z,21.88
2023-05-14T05:01:49.124Z,21.63
2023-05-14T05:04:15.652Z,21.45
2023-05-14T05:06:42.070Z,21.63
2023-05-14T05:09:09.432Z,21.00
2023-05-14T05:11:35.900Z,23.10
2023-05-14T05:14:02.290Z,25.25
2023-05-14T05:16:28.829Z,29.73
2023-05-14T05:18:55.267Z,26.85
2023-05-14T05:21:21.712Z,29.55
2023-05-14T05:23:48.078Z,30.23
2023-05-14T05:26:14.452Z,28.35
2023-05-14T05:28:40.827Z,25.70
2023-05-14T05:31:07.361Z,24.58
2023-05-14T05:33:34.840Z,26.27
2023-05-14T05:36:01.334Z,26.40
2023-05-14T05:38:27.721Z,27.00
2023-05-14T05:40:54.121Z,25.02
2023-05-14T05:43:20.520Z,25.40
2023-05-14T05:45:46.931Z,24.58
2023-05-14T05:48:13.399Z,24.88
2023-05-14T05:50:39.894Z,26.60
2023-05-14T05:53:06.330Z,25.63
2023-05-14T05:55:32.746Z,26.75
2023-05-14T05:57:59.116Z,26.35
2023-05-14T06:00:26.121Z,26.02
2023-05-14T06:02:52.772Z,25.02
2023-05-14T06:05:19.518Z,25.55
2023-05-14T06:07:46.039Z,26.55
2023-05-14T06:10:12.449Z,28.52
2023-05-14T06:12:38.835Z,30.77
2023-05-14T06:15:05.678Z,29.92
2023-05-14T06:17:32.154Z,29.33
2023-05-14T06:19:58.602Z,29.80
2023-05-14T06:22:25.037Z,30.98
2023-05-14T06:24:51.472Z,30.15
2023-05-14T06:27:17.859Z,29.10
2023-05-14T06:29:44.273Z,30.33
2023-05-14T06:32:10.822Z,27.83
2023-05-14T06:34:37.253Z,27.25
2023-05-14T06:37:04.183Z,26.45
2023-05-14T06:39:30.691Z,23.63
2023-05-14T06:41:57.148Z,22.00
2023-05-14T06:44:23.689Z,20.80
2023-05-14T06:46:50.066Z,20.30
2023-05-14T06:49:16.715Z,19.05
2023-05-14T06:51:43.187Z,19.00
2023-05-14T06:54:09.626Z,18.05
2023-05-14T06:56:36.020Z,17.40
2023-05-14T06:59:02.695Z,18.05
2023-05-14T07:01:29.238Z,17.13
2023-05-14T07:03:55.786Z,18.17
2023-05-14T07:06:22.594Z,17.25
2023-05-14T07:08:49.161Z,17.27
2023-05-14T07:11:15.652Z,15.27
2023-05-14T07:13:42.548Z,15.55
2023-05-14T07:16:11.845Z,15.30
2023-05-14T07:18:38.282Z,14.15
2023-05-14T07:21:06.382Z,13.48
2023-05-14T07:23:38.711Z,14.00
2023-05-14T07:26:06.013Z,13.85
2023-05-14T07:28:32.446Z,13.50
2023-05-14T07:30:58.895Z,12.77
2023-05-14T07:33:25.432Z,12.60
2023-05-14T07:35:52.353Z,12.43
2023-05-14T07:38:19.325Z,12.48
2023-05-14T07:40:45.910Z,12.10
2023-05-14T07:43:12.304Z,11.52
2023-05-14T07:45:41.599Z,10.27
2023-05-14T07:48:08.303Z,10.38
2023-05-14T07:50:34.718Z,10.85
2023-05-14T07:53:01.095Z,10.93
2023-05-14T07:55:27.459Z,9.27
2023-05-14T07:57:53.837Z,10.73
2023-05-14T08:00:20.215Z,9.13
2023-05-14T08:02:46.724Z,9.60
2023-05-14T08:05:13.569Z,8.40
2023-05-14T08:07:39.948Z,8.73
2023-05-14T08:10:07.543Z,7.10
2023-05-14T08:12:33.958Z,6.80
2023-05-14T08:15:00.432Z,5.65
2023-05-14T08:17:26.889Z,6.20
2023-05-14T08:19:53.784Z,5.70
2023-05-14T08:22:20.281Z,6.18
2023-05-14T08:24:46.659Z,5.93
2023-05-14T08:27:13.060Z,5.90
2023-05-14T08:29:39.531Z,5.15
2023-05-14T08:32:15.983Z,4.25
2023-05-14T08:34:48.859Z,4.45
2023-05-14T08:37:15.214Z,4.50
2023-05-14T08:39:41.607Z,5.45
2023-05-14T08:42:09.044Z,4.68
2023-05-14T08:44:52.288Z,4.10
2023-05-14T08:47:21.676Z,4.07
2023-05-14T08:50:01.495Z,4.28
2023-05-14T08:52:28.189Z,4.18
2023-05-14T08:54:55.846Z,4.15
2023-05-14T08:57:24.660Z,4.25
2023-05-14T08:59:51.480Z,3.92
2023-05-14T09:02:21.010Z,4.05
2023-05-14T09:04:47.513Z,3.97
2023-05-14T09:07:13.909Z,4.40
2023-05-14T09:09:40.364Z,3.60
2023-05-14T09:12:07.183Z,3.53
2023-05-14T09:14:33.665Z,3.53
2023-05-14T09:17:00.168Z,2.95
2023-05-14T09:19:26.770Z,3.28
2023-05-14T09:21:58.184Z,3.30
2023-05-14T09:24:31.506Z,3.75
2023-05-14T09:26:58.396Z,3.60
2023-05-14T09:29:26.063Z,3.50
2023-05-14T09:31:52.789Z,2.83
2023-05-14T09:34:26.845Z,2.35
2023-05-14T09:37:01.524Z,2.78
2023-05-14T09:39:28.898Z,2.53
2023-05-14T09:41:56.004Z,2.25
2023-05-14T09:44:23.101Z,2.33
2023-05-14T09:46:49.954Z,2.17
2023-05-14T09:49:16.629Z,2.58
2023-05-14T09:51:43.059Z,2.50
2023-05-14T09:54:09.729Z,2.45
2023-05-14T09:56:36.920Z,2.08
2023-05-14T09:59:03.878Z,2.40
2023-05-14T10:01:31.253Z,2.33
2023-05-14T10:03:57.705Z,2.20
2023-05-14T10:06:29.151Z,2.22
2023-05-14T10:08:57.366Z,2.58
2023-05-14T10:11:30.192Z,3.00
2023-05-14T10:14:07.812Z,2.42
2023-05-14T10:16:37.808Z,2.60
2023-05-14T10:19:08.742Z,2.72
2023-05-14T10:21:36.949Z,2.58
2023-05-14T10:24:07.019Z,2.60
2023-05-14T10:26:39.312Z,2.45
2023-05-14T10:29:06.488Z,2.40
2023-05-14T10:31:55.342Z,2.80
2023-05-14T10:34:42.391Z,2.67
2023-05-14T10:37:30.501Z,3.00
2023-05-14T10:39:56.761Z,3.00
2023-05-14T10:42:43.510Z,2.55
2023-05-14T10:45:12.757Z,2.85
2023-05-14T10:47:40.555Z,3.00
2023-05-14T10:50:09.014Z,2.80
2023-05-14T10:52:35.673Z,2.63
2023-05-14T10:55:04.180Z,2.60
2023-05-14T10:57:32.105Z,2.80
2023-05-14T11:00:00.250Z,3.03
2023-05-14T11:02:30.746Z,2.67
2023-05-14T11:05:06.363Z,2.80
2023-05-14T11:07:35.390Z,2.67
2023-05-14T11:10:09.770Z,2.72
2023-05-14T11:12:38.101Z,2.80
2023-05-14T11:15:07.446Z,2.67
2023-05-14T11:17:35.834Z,2.60
2023-05-14T11:20:02.748Z,3.10
2023-05-14T11:22:29.215Z,2.90
2023-05-14T11:24:55.676Z,2.60
2023-05-14T11:27:23.628Z,2.47
2023-05-14T11:29:50.838Z,2.72
2023-05-14T11:32:17.739Z,2.67
2023-05-14T11:34:46.671Z,2.10
2023-05-14T11:37:15.737Z,2.63
2023-05-14T11:39:49.997Z,2.28
2023-05-14T11:42:18.613Z,2.47
2023-05-14T11:44:49.713Z,2.20
2023-05-14T11:47:18.289Z,2.30
2023-05-14T11:49:45.370Z,2.67
2023-05-14T11:52:14.671Z,2.10
2023-05-14T11:54:42.777Z,2.10
2023-05-14T11:57:19.033Z,2.13
2023-05-14T11:59:45.573Z,2.20
2023-05-14T12:02:13.077Z,2.10
2023-05-14T12:04:40.162Z,2.20
2023-05-14T12:07:10.096Z,2.15
2023-05-14T12:09:40.647Z,1.77
2023-05-14T12:12:12.119Z,2.28
2023-05-14T12:14:41.521Z,2.03
2023-05-14T12:17:23.351Z,2.25
2023-05-14T12:19:51.638Z,2.08
2023-05-14T12:22:19.899Z,2.22
2023-05-14T12:24:56.889Z,2.38
2023-05-14T12:27:24.661Z,2.28
2023-05-14T12:30:06.334Z,2.47
2023-05-14T12:32:42.641Z,2.20
2023-05-14T12:35:09.374Z,2.40
2023-05-14T12:37:37.242Z,2.30
2023-05-14T12:40:05.537Z,2.00
2023-05-14T12:42:32.012Z,2.05
2023-05-14T12:44:59.547Z,2.17
2023-05-14T12:47:26.004Z,2.22
2023-05-14T12:49:52.479Z,2.22
2023-05-14T12:52:25.999Z,2.03
2023-05-14T12:55:03.071Z,1.80
2023-05-14T12:57:30.225Z,1.70
2023-05-14T12:59:57.249Z,2.00
2023-05-14T13:02:23.681Z,1.88
2023-05-14T13:04:50.046Z,2.10
2023-05-14T13:07:16.496Z,1.80
2023-05-14T13:09:42.878Z,1.40
2023-05-14T13:12:09.533Z,1.92
2023-05-14T13:14:36.391Z,1.90
2023-05-14T13:17:04.067Z,1.98
2023-05-14T13:19:30.466Z,2.00
2023-05-14T13:21:56.901Z,1.80
2023-05-14T13:24:24.878Z,1.73
2023-05-14T13:26:51.278Z,2.00
2023-05-14T13:29:17.640Z,1.83
2023-05-14T13:31:44.103Z,2.08
2023-05-14T13:34:10.635Z,1.80
2023-05-14T13:36:39.559Z,1.80
2023-05-14T13:39:06.725Z,1.70
2023-05-14T13:41:35.955Z,2.03
2023-05-14T13:44:02.332Z,1.60
2023-05-14T13:46:28.880Z,1.60
2023-05-14T13:48:55.310Z,1.58
2023-05-14T13:51:22.720Z,1.73
2023-05-14T13:53:49.524Z,1.73
2023-05-14T13:56:16.051Z,1.77
2023-05-14T13:58:42.476Z,2.10
2023-05-14T14:01:08.851Z,2.00
2023-05-14T14:03:35.291Z,1.60
2023-05-14T14:06:01.663Z,2.03
2023-05-14T14:08:28.041Z,1.95
2023-05-14T14:10:55.297Z,1.85
2023-05-14T14:13:22.701Z,2.30
2023-05-14T14:15:49.856Z,1.70
2023-05-14T14:18:16.287Z,1.80
2023-05-14T14:20:42.698Z,1.83
2023-05-14T14:23:09.096Z,1.70
2023-05-14T14:25:35.517Z,2.10
2023-05-14T14:28:01.901Z,2.10
2023-05-14T14:30:29.402Z,2.58
2023-05-14T14:32:55.932Z,2.05
2023-05-14T14:35:22.993Z,2.10
2023-05-14T14:37:50.709Z,2.10
2023-05-14T14:40:17.569Z,1.80
2023-05-14T14:42:44.112Z,1.77
2023-05-14T14:45:10.957Z,1.50
2023-05-14T14:47:37.592Z,1.50
2023-05-14T14:50:04.506Z,1.58
2023-05-14T14:52:31.133Z,1.80
2023-05-14T14:54:57.756Z,1.83
2023-05-14T14:57:24.264Z,1.90
2023-05-14T14:59:50.648Z,1.92
2023-05-14T15:02:17.106Z,1.73
2023-05-14T15:04:43.668Z,1.98
2023-05-14T15:07:10.098Z,1.90
2023-05-14T15:09:36.513Z,1.90
2023-05-14T15:12:02.891Z,2.30
2023-05-14T15:14:29.263Z,2.30
2023-05-14T15:16:55.721Z,2.53
2023-05-14T15:19:22.160Z,2.38
2023-05-14T15:21:48.536Z,2.25
2023-05-14T15:24:14.929Z,2.70
2023-05-14T15:26:41.532Z,2.50
2023-05-14T15:29:07.946Z,2.70
2023-05-14T15:31:34.625Z,2.28
2023-05-14T15:34:01.144Z,2.22
2023-05-14T15:36:28.457Z,2.35
2023-05-14T15:38:54.870Z,2.47
2023-05-14T15:41:21.325Z,2.35
2023-05-14T15:43:47.697Z,2.15
2023-05-14T15:46:14.150Z,2.60
2023-05-14T15:48:40.569Z,2.60
2023-05-14T15:51:07.703Z,2.53
2023-05-14T15:53:34.096Z,2.55
2023-05-14T15:56:00.491Z,2.40
2023-05-14T15:58:26.869Z,2.25
2023-05-14T16:00:53.252Z,2.50
2023-05-14T16:03:19.745Z,2.63
2023-05-14T16:05:46.770Z,2.42
2023-05-14T16:08:13.151Z,2.50
2023-05-14T16:10:39.553Z,2.67
2023-05-14T16:13:05.949Z,2.65
2023-05-14T16:15:32.353Z,2.80
2023-05-14T16:17:59.909Z,3.20
2023-05-14T16:20:26.447Z,2.60
2023-05-14T16:22:52.933Z,2.75
2023-05-14T16:25:19.434Z,2.63
2023-05-14T16:27:45.809Z,2.40
2023-05-14T16:30:12.345Z,2.60
2023-05-14T16:32:38.716Z,2.47
2023-05-14T16:35:05.415Z,2.60
2023-05-14T16:37:31.800Z,2.80
2023-05-14T16:39:58.176Z,2.45
2023-05-14T16:42:24.611Z,2.47
2023-05-14T16:44:51.180Z,2.47
2023-05-14T16:47:17.574Z,2.45
2023-05-14T16:49:43.953Z,2.72
2023-05-14T16:52:10.347Z,2.95
2023-05-14T16:54:36.963Z,2.60
2023-05-14T16:57:03.528Z,2.60
2023-05-14T16:59:29.922Z,2.45
2023-05-14T17:01:56.329Z,2.83
2023-05-14T17:04:25.008Z,2.33
2023-05-14T17:06:51.563Z,2.28
2023-05-14T17:09:17.953Z,2.33
2023-05-14T17:11:44.397Z,2.22
2023-05-14T17:14:10.817Z,2.53
2023-05-14T17:16:38.725Z,2.30
2023-05-14T17:19:05.220Z,2.67
2023-05-14T17:21:31.692Z,2.50
2023-05-14T17:23:58.325Z,2.58
2023-05-14T17:26:24.764Z,2.67
2023-05-14T17:28:51.154Z,2.58
2023-05-14T17:31:17.646Z,2.83
2023-05-14T17:33:44.039Z,2.53
2023-05-14T17:36:10.434Z,2.80
2023-05-14T17:38:37.166Z,2.50
2023-05-14T17:41:03.583Z,2.65
2023-05-14T17:43:29.968Z,2.60
2023-05-14T17:45:56.356Z,2.97
2023-05-14T17:48:23.841Z,2.60
2023-05-14T17:50:51.548Z,2.40
2023-05-14T17:53:18.008Z,2.38
2023-05-14T17:55:44.484Z,2.80
2023-05-14T17:58:15.437Z,2.90
2023-05-14T18:00:42.280Z,2.70
2023-05-14T18:03:08.989Z,2.70
2023-05-14T18:05:35.691Z,2.75
2023-05-14T18:08:02.163Z,2.53
2023-05-14T18:10:31.467Z,2.50
2023-05-14T18:12:57.866Z,2.80
2023-05-14T18:15:25.715Z,2.45
2023-05-14T18:17:52.783Z,2.80
2023-05-14T18:20:19.505Z,2.50
2023-05-14T18:22:45.960Z,3.00
2023-05-14T18:25:12.893Z,3.17
2023-05-14T18:27:44.138Z,3.25
2023-05-14T18:30:15.042Z,2.92
2023-05-14T18:32:42.490Z,3.13
2023-05-14T18:35:10.410Z,2.78
2023-05-14T18:37:37.104Z,2.95
2023-05-14T18:40:04.627Z,3.03
2023-05-14T18:42:31.001Z,2.92
2023-05-14T18:44:57.390Z,3.20
2023-05-14T18:47:23.911Z,3.58
2023-05-14T18:49:51.543Z,2.92
2023-05-14T18:52:17.924Z,3.17
2023-05-14T18:54:44.315Z,3.00
2023-05-14T18:57:10.708Z,3.35
2023-05-14T18:59:37.105Z,3.50
2023-05-14T19:02:03.538Z,3.10
2023-05-14T19:04:33.127Z,2.80
2023-05-14T19:07:00.233Z,2.88
2023-05-14T19:09:26.985Z,3.53
2023-05-14T19:11:53.523Z,2.95
2023-05-14T19:14:19.962Z,3.65
2023-05-14T19:16:46.462Z,3.10
2023-05-14T19:19:13.065Z,2.63
2023-05-14T19:21:39.647Z,2.80
2023-05-14T19:24:06.104Z,3.05
2023-05-14T19:26:32.526Z,3.00
2023-05-14T19:28:59.018Z,3.55
2023-05-14T19:31:26.332Z,2.88
2023-05-14T19:33:53.267Z,2.78
2023-05-14T19:36:22.688Z,3.40
2023-05-14T19:38:49.268Z,3.63
2023-05-14T19:41:15.739Z,3.70
2023-05-14T19:43:42.246Z,3.60
2023-05-14T19:46:08.737Z,3.78
2023-05-14T19:48:35.254Z,4.00
2023-05-14T19:51:01.614Z,4.00
2023-05-14T19:53:30.645Z,3.85
2023-05-14T19:55:57.274Z,4.00
2023-05-14T19:58:24.129Z,3.60
2023-05-14T20:00:53.355Z,3.67
2023-05-14T20:03:23.414Z,4.03
2023-05-14T20:05:49.933Z,4.05
2023-05-14T20:08:16.584Z,3.80
2023-05-14T20:10:44.459Z,3.60
2023-05-14T20:13:10.929Z,4.18
2023-05-14T20:15:38.839Z,3.90
2023-05-14T20:18:05.513Z,3.80
2023-05-14T20:20:33.469Z,3.85
2023-05-14T20:23:00.454Z,4.30
2023-05-14T20:25:28.478Z,4.28
2023-05-14T20:27:55.173Z,4.82
2023-05-14T20:30:21.589Z,4.38
2023-05-14T20:32:48.353Z,3.83
2023-05-14T20:35:14.834Z,4.90
2023-05-14T20:37:41.301Z,4.60
2023-05-14T20:40:10.467Z,4.38
2023-05-14T20:42:37.035Z,4.63
2023-05-14T20:45:03.809Z,4.50
2023-05-14T20:47:32.788Z,4.22
2023-05-14T20:49:59.876Z,4.22
2023-05-14T20:52:26.396Z,4.47
2023-05-14T20:54:53.233Z,4.38
2023-05-14T20:57:19.828Z,4.82
2023-05-14T20:59:46.404Z,4.60
2023-05-14T21:02:12.890Z,4.88
2023-05-14T21:04:39.453Z,5.20
2023-05-14T21:07:06.186Z,4.40
2023-05-14T21:09:32.623Z,4.90
2023-05-14T21:11:59.090Z,5.00
2023-05-14T21:14:25.534Z,4.70
2023-05-14T21:16:51.901Z,4.60
2023-05-14T21:19:18.367Z,4.50
2023-05-14T21:21:44.780Z,4.30
2023-05-14T21:24:11.141Z,5.25
2023-05-14T21:26:37.539Z,4.95
2023-05-14T21:29:04.264Z,5.70
2023-05-14T21:31:30.801Z,5.90
2023-05-14T21:33:57.313Z,5.60
2023-05-14T21:36:23.833Z,5.00
2023-05-14T21:38:53.179Z,5.15
2023-05-14T21:41:19.695Z,6.05
2023-05-14T21:43:46.806Z,5.40
2023-05-14T21:46:13.236Z,5.50
2023-05-14T21:48:39.733Z,5.15
2023-05-14T21:51:06.480Z,5.40
2023-05-14T21:53:32.840Z,5.57
2023-05-14T21:55:59.233Z,5.10
2023-05-14T21:58:26.515Z,6.20
2023-05-14T22:00:52.910Z,5.53
2023-05-14T22:03:19.356Z,6.18
2023-05-14T22:05:46.006Z,6.47
2023-05-14T22:08:12.377Z,6.82
2023-05-14T22:10:38.752Z,7.03
2023-05-14T22:13:05.185Z,7.60
2023-05-14T22:15:31.544Z,7.60
2023-05-14T22:17:57.980Z,7.40
2023-05-14T22:20:24.364Z,7.53
2023-05-14T22:22:51.405Z,6.72
2023-05-14T22:25:17.765Z,6.90
2023-05-14T22:27:44.165Z,6.80
2023-05-14T22:30:11.048Z,7.18
2023-05-14T22:32:37.496Z,7.63
2023-05-14T22:35:04.203Z,7.43
2023-05-14T22:37:30.716Z,6.60
2023-05-14T22:39:57.180Z,7.38
2023-05-14T22:42:23.598Z,8.27
2023-05-14T22:44:49.949Z,8.63
2023-05-14T22:47:16.407Z,8.40
2023-05-14T22:49:43.547Z,9.40
2023-05-14T22:52:10.135Z,9.32
2023-05-14T22:54:36.518Z,9.13
2023-05-14T22:57:03.529Z,9.63
2023-05-14T22:59:29.921Z,9.75
2023-05-14T23:01:56.362Z,8.65
2023-05-14T23:04:22.787Z,8.35
2023-05-14T23:06:49.328Z,8.20
2023-05-14T23:09:15.705Z,8.77
2023-05-14T23:11:42.155Z,7.80
2023-05-14T23:14:08.908Z,8.10
2023-05-14T23:16:35.555Z,8.02
2023-05-14T23:19:02.098Z,8.63
2023-05-14T23:21:28.569Z,8.80
2023-05-14T23:23:54.942Z,8.38
2023-05-14T23:26:21.681Z,8.95
2023-05-14T23:28:48.054Z,8.07
2023-05-14T23:31:14.444Z,8.30
2023-05-14T23:33:41.020Z,7.97
2023-05-14T23:36:07.939Z,8.00
2023-05-14T23:38:34.369Z,8.05
2023-05-14T23:41:00.943Z,8.23
2023-05-14T23:43:27.429Z,8.98
2023-05-14T23:45:54.004Z,9.30
2023-05-14T23:48:20.531Z,10.07
2023-05-14T23:50:46.897Z,8.85
2023-05-14T23:53:13.273Z,10.13
2023-05-14T23:55:39.844Z,10.43
2023-05-14T23:58:06.286Z,8.93
